createdAt,value
2022-11-16T00:00:29.919Z,11.91
2022-11-16T00:01:36.408Z,12.18
2022-11-16T00:02:38.378Z,12.40
2022-11-16T00:03:41.236Z,12.56
2022-11-16T00:04:43.161Z,12.40
2022-11-16T00:05:44.994Z,11.96
2022-11-16T00:06:49.832Z,11.47
2022-11-16T00:07:51.711Z,10.97
2022-11-16T00:09:18.922Z,10.56
2022-11-16T00:10:21.021Z,10.07
2022-11-16T00:11:23.016Z,10.03
2022-11-16T00:12:24.860Z,10.37
2022-11-16T00:13:26.854Z,10.84
2022-11-16T00:14:34.113Z,11.30
2022-11-16T00:15:35.985Z,11.75
2022-11-16T00:16:38.986Z,12.09
2022-11-16T00:17:40.866Z,12.37
2022-11-16T00:18:44.038Z,12.60
2022-11-16T00:19:47.980Z,12.63
2022-11-16T00:20:51.002Z,12.30
2022-11-16T00:21:53.648Z,11.80
2022-11-16T00:22:55.535Z,11.28
2022-11-16T00:23:57.804Z,10.82
2022-11-16T00:24:59.641Z,10.42
2022-11-16T00:26:06.330Z,10.07
2022-11-16T00:27:08.290Z,9.91
2022-11-16T00:28:11.347Z,10.16
2022-11-16T00:29:21.837Z,10.61
2022-11-16T00:30:23.723Z,11.16
2022-11-16T00:31:26.237Z,11.59
2022-11-16T00:32:28.258Z,11.93
2022-11-16T00:33:30.513Z,12.22
2022-11-16T00:34:32.665Z,12.43
2022-11-16T00:35:39.763Z,12.58
2022-11-16T00:36:41.777Z,12.43
2022-11-16T00:37:43.675Z,11.98
2022-11-16T00:38:45.752Z,11.47
2022-11-16T00:39:48.433Z,10.97
2022-11-16T00:40:50.561Z,10.53
2022-11-16T00:41:52.490Z,10.13
2022-11-16T00:42:54.467Z,9.83
2022-11-16T00:43:56.837Z,9.89
2022-11-16T00:44:58.813Z,10.26
2022-11-16T00:46:00.920Z,10.72
2022-11-16T00:47:04.027Z,11.15
2022-11-16T00:48:06.688Z,11.53
2022-11-16T00:49:09.057Z,11.83
2022-11-16T00:50:11.119Z,12.09
2022-11-16T00:51:13.355Z,12.31
2022-11-16T00:52:16.862Z,12.48
2022-11-16T00:53:20.723Z,12.41
2022-11-16T00:54:22.773Z,12.01
2022-11-16T00:55:25.323Z,11.48
2022-11-16T00:56:27.483Z,10.94
2022-11-16T00:57:29.348Z,10.47
2022-11-16T00:58:31.800Z,10.04
2022-11-16T00:59:38.191Z,9.70
2022-11-16T01:00:41.277Z,9.76
2022-11-16T01:01:43.228Z,10.15
2022-11-16T01:02:45.265Z,10.61
2022-11-16T01:03:48.131Z,11.04
2022-11-16T01:04:50.299Z,11.39
2022-11-16T01:05:52.199Z,11.71
2022-11-16T01:06:54.174Z,11.95
2022-11-16T01:07:59.369Z,12.16
2022-11-16T01:09:01.665Z,12.34
2022-11-16T01:10:14.274Z,12.38
2022-11-16T01:11:36.626Z,11.97
2022-11-16T01:12:38.724Z,11.30
2022-11-16T01:13:40.578Z,10.80
2022-11-16T01:14:45.354Z,10.36
2022-11-16T01:15:48.448Z,9.95
2022-11-16T01:16:50.838Z,9.73
2022-11-16T01:17:54.810Z,9.93
2022-11-16T01:18:56.788Z,10.37
2022-11-16T01:19:58.869Z,10.83
2022-11-16T01:21:00.797Z,11.24
2022-11-16T01:22:02.808Z,11.58
2022-11-16T01:23:04.933Z,11.87
2022-11-16T01:24:06.918Z,12.10
2022-11-16T01:25:10.361Z,12.30
2022-11-16T01:26:13.053Z,12.37
2022-11-16T01:27:16.389Z,12.07
2022-11-16T01:28:19.808Z,11.56
2022-11-16T01:29:25.870Z,11.01
2022-11-16T01:30:31.462Z,10.52
2022-11-16T01:31:43.389Z,10.06
2022-11-16T01:32:45.338Z,9.74
2022-11-16T01:33:47.760Z,9.73
2022-11-16T01:34:55.208Z,10.09
2022-11-16T01:36:03.481Z,10.58
2022-11-16T01:37:05.455Z,11.01
2022-11-16T01:38:10.243Z,11.38
2022-11-16T01:39:14.126Z,11.68
2022-11-16T01:40:21.184Z,11.95
2022-11-16T01:41:26.056Z,12.16
2022-11-16T01:42:33.800Z,12.36
2022-11-16T01:43:58.727Z,12.28
2022-11-16T01:45:16.827Z,11.68
2022-11-16T01:46:19.673Z,11.07
2022-11-16T01:47:22.259Z,10.59
2022-11-16T01:48:30.366Z,10.19
2022-11-16T01:49:36.337Z,9.79
2022-11-16T01:50:39.668Z,9.67
2022-11-16T01:51:47.790Z,9.96
2022-11-16T01:53:00.852Z,10.46
2022-11-16T01:54:12.560Z,11.00
2022-11-16T01:55:27.752Z,11.47
2022-11-16T01:56:44.550Z,11.86
2022-11-16T01:57:59.140Z,12.15
2022-11-16T01:59:03.313Z,12.36
2022-11-16T02:00:09.462Z,12.45
2022-11-16T02:01:19.947Z,12.10
2022-11-16T02:02:24.721Z,11.57
2022-11-16T02:03:26.999Z,11.03
2022-11-16T02:04:29.903Z,10.56
2022-11-16T02:06:03.974Z,10.14
2022-11-16T02:07:26.943Z,9.63
2022-11-16T02:09:10.865Z,9.67
2022-11-16T02:10:55.017Z,10.42
2022-11-16T02:12:22.875Z,11.11
2022-11-16T02:13:46.511Z,11.56
2022-11-16T02:15:16.171Z,11.91
2022-11-16T02:16:53.189Z,12.22
2022-11-16T02:18:08.977Z,12.30
2022-11-16T02:19:37.222Z,11.84
2022-11-16T02:21:00.434Z,11.12
2022-11-16T02:22:25.644Z,10.49
2022-11-16T02:23:43.513Z,9.95
2022-11-16T02:25:08.280Z,9.73
2022-11-16T02:26:39.251Z,10.15
2022-11-16T02:28:14.315Z,10.82
2022-11-16T02:29:34.453Z,11.44
2022-11-16T02:30:38.211Z,11.84
2022-11-16T02:31:51.784Z,12.09
2022-11-16T02:33:04.854Z,12.31
2022-11-16T02:34:13.055Z,12.29
2022-11-16T02:35:20.732Z,11.88
2022-11-16T02:36:25.634Z,11.30
2022-11-16T02:37:34.806Z,10.78
2022-11-16T02:38:45.288Z,10.28
2022-11-16T02:39:53.292Z,9.85
2022-11-16T02:41:05.790Z,9.53
2022-11-16T02:42:15.341Z,9.69
2022-11-16T02:43:29.966Z,10.17
2022-11-16T02:44:40.147Z,10.73
2022-11-16T02:45:50.567Z,11.21
2022-11-16T02:47:00.230Z,11.59
2022-11-16T02:48:11.225Z,11.90
2022-11-16T02:49:19.530Z,12.18
2022-11-16T02:50:23.908Z,12.35
2022-11-16T02:51:29.599Z,12.15
2022-11-16T02:52:32.594Z,11.68
2022-11-16T02:53:42.940Z,11.17
2022-11-16T02:54:45.190Z,10.63
2022-11-16T02:55:47.872Z,10.21
2022-11-16T02:57:02.186Z,9.83
2022-11-16T02:58:09.371Z,9.48
2022-11-16T02:59:16.465Z,9.58
2022-11-16T03:00:36.008Z,10.04
2022-11-16T03:01:51.309Z,10.63
2022-11-16T03:03:01.792Z,11.12
2022-11-16T03:04:33.006Z,11.49
2022-11-16T03:05:53.105Z,11.89
2022-11-16T03:06:58.470Z,12.15
2022-11-16T03:08:17.675Z,12.19
2022-11-16T03:09:27.601Z,11.73
2022-11-16T03:10:49.264Z,11.14
2022-11-16T03:11:59.841Z,10.48
2022-11-16T03:13:08.391Z,9.98
2022-11-16T03:14:16.889Z,9.59
2022-11-16T03:15:18.901Z,9.31
2022-11-16T03:16:28.614Z,9.45
2022-11-16T03:17:38.790Z,9.95
2022-11-16T03:18:46.549Z,10.49
2022-11-16T03:20:07.762Z,10.94
2022-11-16T03:21:25.603Z,11.38
2022-11-16T03:22:54.801Z,11.70
2022-11-16T03:23:57.660Z,12.00
2022-11-16T03:24:59.824Z,11.95
2022-11-16T03:26:09.344Z,11.56
2022-11-16T03:27:35.251Z,10.99
2022-11-16T03:28:52.307Z,10.28
2022-11-16T03:30:10.872Z,9.72
2022-11-16T03:31:32.918Z,9.25
2022-11-16T03:32:51.323Z,9.07
2022-11-16T03:34:01.034Z,9.51
2022-11-16T03:35:12.845Z,10.04
2022-11-16T03:36:34.116Z,10.58
2022-11-16T03:37:39.657Z,11.09
2022-11-16T03:38:47.863Z,11.42
2022-11-16T03:39:53.387Z,11.69
2022-11-16T03:41:01.912Z,11.91
2022-11-16T03:42:09.365Z,11.96
2022-11-16T03:43:11.948Z,11.60
2022-11-16T03:44:17.819Z,11.08
2022-11-16T03:45:21.329Z,10.54
2022-11-16T03:46:24.352Z,10.06
2022-11-16T03:47:26.186Z,9.66
2022-11-16T03:48:38.100Z,9.30
2022-11-16T03:49:48.200Z,9.30
2022-11-16T03:50:52.688Z,9.72
2022-11-16T03:51:54.767Z,10.22
2022-11-16T03:52:57.367Z,10.66
2022-11-16T03:53:59.345Z,11.04
2022-11-16T03:55:01.224Z,11.38
2022-11-16T03:56:04.301Z,11.66
2022-11-16T03:57:06.849Z,11.89
2022-11-16T03:58:08.600Z,12.06
2022-11-16T03:59:10.500Z,11.96
2022-11-16T04:00:12.847Z,11.53
2022-11-16T04:01:17.531Z,10.98
2022-11-16T04:02:19.794Z,10.46
2022-11-16T04:03:22.991Z,10.00
2022-11-16T04:04:43.615Z,9.61
2022-11-16T04:06:03.940Z,9.33
2022-11-16T04:07:24.335Z,9.72
2022-11-16T04:08:45.013Z,10.34
2022-11-16T04:10:05.743Z,10.92
2022-11-16T04:11:31.721Z,11.39
2022-11-16T04:12:52.353Z,11.78
2022-11-16T04:14:12.856Z,12.07
2022-11-16T04:15:34.299Z,12.18
2022-11-16T04:16:54.731Z,11.74
2022-11-16T04:18:15.012Z,11.06
2022-11-16T04:19:35.414Z,10.42
2022-11-16T04:20:55.524Z,9.89
2022-11-16T04:22:23.298Z,9.48
2022-11-16T04:23:43.809Z,9.69
2022-11-16T04:24:54.714Z,10.29
2022-11-16T04:25:57.528Z,10.80
2022-11-16T04:27:24.606Z,11.19
2022-11-16T04:28:32.081Z,11.63
2022-11-16T04:29:37.177Z,11.89
2022-11-16T04:31:12.754Z,12.09
2022-11-16T04:32:34.854Z,12.09
2022-11-16T04:33:55.895Z,11.54
2022-11-16T04:35:16.736Z,10.87
2022-11-16T04:36:37.229Z,10.25
2022-11-16T04:37:52.716Z,9.73
2022-11-16T04:39:03.142Z,9.44
2022-11-16T04:40:05.472Z,9.67
2022-11-16T04:41:27.317Z,10.08
2022-11-16T04:42:29.087Z,10.67
2022-11-16T04:43:30.846Z,11.05
2022-11-16T04:44:55.597Z,11.36
2022-11-16T04:46:17.919Z,11.72
2022-11-16T04:47:19.721Z,11.98
2022-11-16T04:48:21.999Z,12.12
2022-11-16T04:49:26.207Z,11.94
2022-11-16T04:50:28.259Z,11.48
2022-11-16T04:51:30.428Z,10.95
2022-11-16T04:52:32.490Z,10.44
2022-11-16T04:53:34.451Z,9.99
2022-11-16T04:54:42.671Z,9.55
2022-11-16T04:55:44.780Z,9.26
2022-11-16T04:56:46.970Z,9.35
2022-11-16T04:57:48.743Z,9.75
2022-11-16T04:58:51.228Z,10.22
2022-11-16T04:59:53.310Z,10.67
2022-11-16T05:00:55.183Z,11.07
2022-11-16T05:02:09.284Z,11.41
2022-11-16T05:03:18.904Z,11.75
2022-11-16T05:04:20.785Z,11.95
2022-11-16T05:05:22.749Z,12.10
2022-11-16T05:06:25.182Z,12.09
2022-11-16T05:07:27.017Z,11.74
2022-11-16T05:08:35.508Z,11.16
2022-11-16T05:09:51.067Z,10.64
2022-11-16T05:10:52.919Z,10.10
2022-11-16T05:11:54.713Z,9.72
2022-11-16T05:12:57.674Z,9.53
2022-11-16T05:13:59.798Z,9.75
2022-11-16T05:15:01.987Z,10.21
2022-11-16T05:16:05.957Z,10.69
2022-11-16T05:17:07.995Z,11.11
2022-11-16T05:18:09.873Z,11.47
2022-11-16T05:19:30.097Z,11.75
2022-11-16T05:20:51.142Z,12.07
2022-11-16T05:21:52.950Z,12.28
2022-11-16T05:22:56.721Z,12.28
2022-11-16T05:24:18.461Z,11.90
2022-11-16T05:25:20.310Z,11.23
2022-11-16T05:26:22.236Z,10.71
2022-11-16T05:27:26.349Z,10.25
2022-11-16T05:28:28.273Z,9.83
2022-11-16T05:29:31.088Z,9.49
2022-11-16T05:30:32.868Z,9.43
2022-11-16T05:31:40.139Z,9.76
2022-11-16T05:32:43.451Z,10.28
2022-11-16T05:33:45.388Z,10.74
2022-11-16T05:34:48.509Z,11.14
2022-11-16T05:35:51.663Z,11.48
2022-11-16T05:36:54.463Z,11.75
2022-11-16T05:37:56.653Z,11.96
2022-11-16T05:38:58.403Z,12.13
2022-11-16T05:40:01.598Z,12.01
2022-11-16T05:41:12.186Z,11.52
2022-11-16T05:42:14.114Z,11.02
2022-11-16T05:43:16.123Z,10.52
2022-11-16T05:44:25.082Z,10.02
2022-11-16T05:45:27.088Z,9.63
2022-11-16T05:46:28.918Z,9.33
2022-11-16T05:47:33.400Z,9.36
2022-11-16T05:48:35.991Z,9.76
2022-11-16T05:49:38.695Z,10.27
2022-11-16T05:50:42.917Z,10.75
2022-11-16T05:51:54.208Z,11.23
2022-11-16T05:52:56.035Z,11.53
2022-11-16T05:53:57.903Z,11.78
2022-11-16T05:55:00.907Z,12.00
2022-11-16T05:56:03.144Z,12.16
2022-11-16T05:57:05.573Z,12.04
2022-11-16T05:58:07.411Z,11.63
2022-11-16T05:59:15.229Z,11.12
2022-11-16T06:00:18.969Z,10.55
2022-11-16T06:01:22.488Z,10.09
2022-11-16T06:02:24.686Z,9.69
2022-11-16T06:03:29.566Z,9.39
2022-11-16T06:04:32.526Z,9.51
2022-11-16T06:05:40.241Z,9.93
2022-11-16T06:06:43.061Z,10.46
2022-11-16T06:07:46.766Z,10.92
2022-11-16T06:08:48.573Z,11.30
2022-11-16T06:09:53.578Z,11.63
2022-11-16T06:10:55.931Z,11.89
2022-11-16T06:11:57.916Z,12.09
2022-11-16T06:12:59.691Z,12.09
2022-11-16T06:14:01.453Z,11.79
2022-11-16T06:15:03.457Z,11.28
2022-11-16T06:16:05.967Z,10.75
2022-11-16T06:17:08.708Z,10.25
2022-11-16T06:18:10.736Z,9.81
2022-11-16T06:19:12.583Z,9.44
2022-11-16T06:20:14.625Z,9.30
2022-11-16T06:21:19.347Z,9.56
2022-11-16T06:22:21.160Z,10.00
2022-11-16T06:23:23.603Z,10.46
2022-11-16T06:24:26.043Z,10.85
2022-11-16T06:25:28.012Z,11.19
2022-11-16T06:26:29.739Z,11.48
2022-11-16T06:27:31.495Z,11.71
2022-11-16T06:28:34.514Z,11.91
2022-11-16T06:29:36.703Z,12.04
2022-11-16T06:30:40.581Z,11.85
2022-11-16T06:31:42.694Z,11.37
2022-11-16T06:32:45.460Z,10.85
2022-11-16T06:33:47.248Z,10.37
2022-11-16T06:34:55.883Z,9.90
2022-11-16T06:35:57.958Z,9.52
2022-11-16T06:37:00.122Z,9.35
2022-11-16T06:38:01.916Z,9.59
2022-11-16T06:39:03.840Z,10.02
2022-11-16T06:40:11.014Z,10.52
2022-11-16T06:41:15.995Z,10.94
2022-11-16T06:42:20.197Z,11.30
2022-11-16T06:43:23.262Z,11.58
2022-11-16T06:44:25.087Z,11.80
2022-11-16T06:45:31.825Z,11.98
2022-11-16T06:46:34.679Z,12.03
2022-11-16T06:47:37.361Z,11.74
2022-11-16T06:48:39.491Z,11.24
2022-11-16T06:49:44.368Z,10.71
2022-11-16T06:50:52.506Z,10.21
2022-11-16T06:51:54.860Z,9.80
2022-11-16T06:52:56.624Z,9.49
2022-11-16T06:53:58.502Z,9.54
2022-11-16T06:55:02.407Z,9.94
2022-11-16T06:56:07.488Z,10.43
2022-11-16T06:57:15.798Z,10.91
2022-11-16T06:58:18.200Z,11.25
2022-11-16T06:59:20.052Z,11.51
2022-11-16T07:00:22.073Z,11.75
2022-11-16T07:01:24.624Z,11.93
2022-11-16T07:02:29.434Z,12.07
2022-11-16T07:03:32.469Z,11.88
2022-11-16T07:04:36.158Z,11.41
2022-11-16T07:05:40.907Z,10.87
2022-11-16T07:06:45.272Z,10.34
2022-11-16T07:07:47.947Z,9.90
2022-11-16T07:08:50.330Z,9.51
2022-11-16T07:09:54.362Z,9.28
2022-11-16T07:10:59.027Z,9.48
2022-11-16T07:12:04.993Z,9.96
2022-11-16T07:13:10.303Z,10.46
2022-11-16T07:14:13.290Z,10.89
2022-11-16T07:15:17.583Z,11.25
2022-11-16T07:16:21.076Z,11.54
2022-11-16T07:17:30.037Z,11.79
2022-11-16T07:18:35.193Z,11.96
2022-11-16T07:19:37.315Z,11.98
2022-11-16T07:20:39.207Z,11.63
2022-11-16T07:21:41.059Z,11.10
2022-11-16T07:22:47.026Z,10.54
2022-11-16T07:23:49.327Z,10.05
2022-11-16T07:24:53.870Z,9.61
2022-11-16T07:26:00.216Z,9.24
2022-11-16T07:27:08.878Z,8.88
2022-11-16T07:28:11.794Z,8.94
2022-11-16T07:29:15.367Z,9.34
2022-11-16T07:30:21.276Z,9.86
2022-11-16T07:31:31.893Z,10.39
2022-11-16T07:32:59.302Z,10.92
2022-11-16T07:34:21.226Z,11.32
2022-11-16T07:35:48.628Z,11.63
2022-11-16T07:36:50.919Z,11.80
2022-11-16T07:37:52.774Z,11.94
2022-11-16T07:38:54.721Z,11.79
2022-11-16T07:39:56.513Z,11.35
2022-11-16T07:41:06.415Z,10.82
2022-11-16T07:42:12.314Z,10.24
2022-11-16T07:43:29.509Z,9.73
2022-11-16T07:45:20.992Z,9.19
2022-11-16T07:46:45.873Z,9.42
2022-11-16T07:47:52.330Z,10.04
2022-11-16T07:49:01.211Z,10.58
2022-11-16T07:50:21.503Z,11.07
2022-11-16T07:51:23.852Z,11.37
2022-11-16T07:52:38.295Z,11.69
2022-11-16T07:53:55.861Z,11.94
2022-11-16T07:54:57.738Z,12.08
2022-11-16T07:56:01.849Z,11.89
2022-11-16T07:57:04.059Z,11.44
2022-11-16T07:58:05.960Z,10.91
2022-11-16T07:59:08.960Z,10.40
2022-11-16T08:00:14.093Z,9.92
2022-11-16T08:01:19.064Z,9.50
2022-11-16T08:02:21.245Z,9.23
2022-11-16T08:03:24.927Z,9.36
2022-11-16T08:04:28.011Z,9.81
2022-11-16T08:05:30.135Z,10.30
2022-11-16T08:06:32.206Z,10.75
2022-11-16T08:07:35.554Z,11.16
2022-11-16T08:08:38.155Z,11.48
2022-11-16T08:09:40.782Z,11.76
2022-11-16T08:10:43.507Z,11.98
2022-11-16T08:11:47.098Z,12.13
2022-11-16T08:12:49.174Z,11.97
2022-11-16T08:13:53.503Z,11.52
2022-11-16T08:14:55.414Z,11.01
2022-11-16T08:16:11.618Z,10.51
2022-11-16T08:17:13.507Z,9.99
2022-11-16T08:18:15.378Z,9.62
2022-11-16T08:19:17.233Z,9.32
2022-11-16T08:20:19.016Z,9.36
2022-11-16T08:21:22.560Z,9.76
2022-11-16T08:22:24.652Z,10.26
2022-11-16T08:23:28.676Z,10.72
2022-11-16T08:24:30.433Z,11.12
2022-11-16T08:25:32.356Z,11.43
2022-11-16T08:26:34.949Z,11.69
2022-11-16T08:27:40.768Z,11.92
2022-11-16T08:28:44.717Z,12.07
2022-11-16T08:29:46.645Z,11.88
2022-11-16T08:30:53.665Z,11.43
2022-11-16T08:31:56.248Z,10.86
2022-11-16T08:32:58.374Z,10.38
2022-11-16T08:34:00.937Z,9.98
2022-11-16T08:35:03.130Z,9.59
2022-11-16T08:36:13.763Z,9.27
2022-11-16T08:37:16.737Z,9.23
2022-11-16T08:38:20.191Z,9.60
2022-11-16T08:39:22.066Z,10.08
2022-11-16T08:40:24.578Z,10.55
2022-11-16T08:41:26.516Z,10.96
2022-11-16T08:42:28.634Z,11.31
2022-11-16T08:43:31.057Z,11.58
2022-11-16T08:44:32.799Z,11.81
2022-11-16T08:45:38.347Z,11.99
2022-11-16T08:46:40.382Z,12.06
2022-11-16T08:48:03.248Z,11.73
2022-11-16T08:49:06.273Z,11.13
2022-11-16T08:50:08.346Z,10.65
2022-11-16T08:51:20.151Z,10.20
2022-11-16T08:52:27.795Z,9.72
2022-11-16T08:53:29.877Z,9.38
2022-11-16T08:54:32.202Z,9.09
2022-11-16T08:55:34.018Z,9.14
2022-11-16T08:56:35.873Z,9.53
2022-11-16T08:57:37.969Z,10.03
2022-11-16T08:58:44.333Z,10.51
2022-11-16T08:59:47.293Z,10.92
2022-11-16T09:00:49.277Z,11.27
2022-11-16T09:01:51.174Z,11.56
2022-11-16T09:02:52.942Z,11.80
2022-11-16T09:03:55.154Z,12.00
2022-11-16T09:04:57.172Z,12.08
2022-11-16T09:05:59.502Z,11.80
2022-11-16T09:07:01.284Z,11.32
2022-11-16T09:08:03.114Z,10.79
2022-11-16T09:09:04.997Z,10.32
2022-11-16T09:10:07.592Z,9.90
2022-11-16T09:11:12.503Z,9.52
2022-11-16T09:12:14.247Z,9.20
2022-11-16T09:13:15.950Z,9.20
2022-11-16T09:14:17.871Z,9.56
2022-11-16T09:15:20.810Z,10.06
2022-11-16T09:16:23.188Z,10.55
2022-11-16T09:17:24.909Z,10.97
2022-11-16T09:18:27.983Z,11.30
2022-11-16T09:19:29.679Z,11.59
2022-11-16T09:20:31.390Z,11.84
2022-11-16T09:21:33.132Z,12.02
2022-11-16T09:22:35.189Z,11.95
2022-11-16T09:23:37.040Z,11.57
2022-11-16T09:24:38.825Z,11.08
2022-11-16T09:25:40.533Z,10.60
2022-11-16T09:26:42.273Z,10.16
2022-11-16T09:27:43.973Z,9.79
2022-11-16T09:28:46.267Z,9.46
2022-11-16T09:29:48.024Z,9.38
2022-11-16T09:30:51.546Z,9.70
2022-11-16T09:31:54.250Z,10.19
2022-11-16T09:32:58.475Z,10.65
2022-11-16T09:34:00.310Z,11.07
2022-11-16T09:35:02.018Z,11.43
2022-11-16T09:36:07.139Z,11.74
2022-11-16T09:37:09.322Z,12.00
2022-11-16T09:38:13.749Z,12.13
2022-11-16T09:39:30.664Z,11.88
2022-11-16T09:40:37.819Z,11.34
2022-11-16T09:42:03.850Z,10.82
2022-11-16T09:43:44.027Z,10.22
2022-11-16T09:45:07.693Z,9.66
2022-11-16T09:46:27.017Z,9.33
2022-11-16T09:47:49.802Z,9.59
2022-11-16T09:48:58.184Z,10.23
2022-11-16T09:50:04.693Z,10.75
2022-11-16T09:51:12.276Z,11.20
2022-11-16T09:52:27.980Z,11.56
2022-11-16T09:53:42.396Z,11.89
2022-11-16T09:54:47.323Z,12.13
2022-11-16T09:55:53.331Z,11.97
2022-11-16T09:57:02.114Z,11.52
2022-11-16T09:58:15.516Z,10.96
2022-11-16T09:59:51.894Z,10.41
2022-11-16T10:01:06.495Z,9.80
2022-11-16T10:02:31.556Z,9.40
2022-11-16T10:03:43.564Z,9.37
2022-11-16T10:05:14.515Z,9.85
2022-11-16T10:06:22.216Z,10.61
2022-11-16T10:07:33.183Z,11.11
2022-11-16T10:08:43.299Z,11.54
2022-11-16T10:09:46.576Z,11.88
2022-11-16T10:11:30.333Z,12.13
2022-11-16T10:12:31.956Z,12.12
2022-11-16T10:13:52.104Z,11.70
2022-11-16T10:15:24.646Z,11.03
2022-11-16T10:16:56.737Z,10.33
2022-11-16T10:18:25.051Z,9.72
2022-11-16T10:19:43.697Z,9.28
2022-11-16T10:21:04.378Z,9.45
2022-11-16T10:22:20.712Z,10.08
2022-11-16T10:23:31.468Z,10.75
2022-11-16T10:24:57.989Z,11.26
2022-11-16T10:26:21.876Z,11.75
2022-11-16T10:27:51.701Z,12.11
2022-11-16T10:29:16.090Z,12.31
2022-11-16T10:30:20.790Z,11.90
2022-11-16T10:31:51.093Z,11.36
2022-11-16T10:33:11.289Z,10.65
2022-11-16T10:34:25.667Z,10.11
2022-11-16T10:35:53.631Z,9.67
2022-11-16T10:37:06.893Z,9.43
2022-11-16T10:38:15.159Z,9.81
2022-11-16T10:39:20.563Z,10.32
2022-11-16T10:40:27.444Z,10.79
2022-11-16T10:41:41.268Z,11.23
2022-11-16T10:42:54.830Z,11.65
2022-11-16T10:43:59.370Z,11.96
2022-11-16T10:45:17.592Z,12.17
2022-11-16T10:46:34.602Z,12.09
2022-11-16T10:47:46.979Z,11.58
2022-11-16T10:49:18.579Z,11.00
2022-11-16T10:50:32.368Z,10.36
2022-11-16T10:51:34.435Z,9.90
2022-11-16T10:52:36.167Z,9.55
2022-11-16T10:53:41.707Z,9.27
2022-11-16T10:54:44.562Z,9.34
2022-11-16T10:56:06.728Z,9.76
2022-11-16T10:57:14.390Z,10.41
2022-11-16T10:58:16.145Z,10.88
2022-11-16T10:59:21.556Z,11.25
2022-11-16T11:00:39.742Z,11.58
2022-11-16T11:01:47.972Z,11.88
2022-11-16T11:02:49.725Z,12.09
2022-11-16T11:03:51.407Z,12.05
2022-11-16T11:05:17.985Z,11.68
2022-11-16T11:06:25.226Z,10.98
2022-11-16T11:07:43.922Z,10.44
2022-11-16T11:08:45.745Z,9.91
2022-11-16T11:09:53.437Z,9.55
2022-11-16T11:11:03.174Z,9.34
2022-11-16T11:12:34.685Z,9.61
2022-11-16T11:13:36.941Z,10.33
2022-11-16T11:14:38.749Z,10.81
2022-11-16T11:15:43.061Z,11.22
2022-11-16T11:16:44.750Z,11.58
2022-11-16T11:17:48.952Z,11.86
2022-11-16T11:18:51.450Z,12.13
2022-11-16T11:20:16.271Z,12.24
2022-11-16T11:21:22.860Z,11.82
2022-11-16T11:22:25.029Z,11.30
2022-11-16T11:23:27.884Z,10.81
2022-11-16T11:24:44.109Z,10.36
2022-11-16T11:25:58.865Z,9.88
2022-11-16T11:27:01.471Z,9.49
2022-11-16T11:28:23.250Z,9.41
2022-11-16T11:29:32.576Z,9.84
2022-11-16T11:30:35.871Z,10.38
2022-11-16T11:31:52.532Z,10.85
2022-11-16T11:32:54.623Z,11.34
2022-11-16T11:34:10.093Z,11.68
2022-11-16T11:35:31.340Z,12.00
2022-11-16T11:36:43.592Z,12.24
2022-11-16T11:37:54.917Z,12.01
2022-11-16T11:39:26.329Z,11.48
2022-11-16T11:40:30.712Z,10.74
2022-11-16T11:41:49.664Z,10.28
2022-11-16T11:42:58.117Z,9.79
2022-11-16T11:44:17.102Z,9.41
2022-11-16T11:45:23.198Z,9.20
2022-11-16T11:46:47.539Z,9.50
2022-11-16T11:48:02.753Z,10.17
2022-11-16T11:49:23.473Z,10.70
2022-11-16T11:50:48.008Z,11.22
2022-11-16T11:51:54.150Z,11.62
2022-11-16T11:53:17.214Z,11.88
2022-11-16T11:54:45.633Z,12.10
2022-11-16T11:55:58.143Z,11.74
2022-11-16T11:57:04.598Z,11.13
2022-11-16T11:58:16.146Z,10.59
2022-11-16T11:59:23.813Z,10.07
2022-11-16T12:00:26.181Z,9.65
2022-11-16T12:01:56.063Z,9.33
2022-11-16T12:03:33.583Z,9.13
2022-11-16T12:05:00.268Z,9.71
2022-11-16T12:06:29.728Z,10.41
2022-11-16T12:07:40.255Z,11.03
2022-11-16T12:08:58.461Z,11.44
2022-11-16T12:10:18.788Z,11.81
2022-11-16T12:11:42.139Z,12.10
2022-11-16T12:13:01.590Z,12.19
2022-11-16T12:14:44.913Z,11.73
2022-11-16T12:15:58.505Z,10.89
2022-11-16T12:17:27.680Z,10.32
2022-11-16T12:19:16.984Z,9.72
2022-11-16T12:20:28.881Z,9.30
2022-11-16T12:21:41.215Z,9.61
2022-11-16T12:23:20.504Z,10.17
2022-11-16T12:24:50.143Z,10.89
2022-11-16T12:26:15.726Z,11.42
2022-11-16T12:27:41.112Z,11.79
2022-11-16T12:29:19.124Z,12.05
2022-11-16T12:30:23.736Z,11.75
2022-11-16T12:31:34.397Z,11.21
2022-11-16T12:33:02.032Z,10.63
2022-11-16T12:34:18.137Z,9.98
2022-11-16T12:35:44.478Z,9.52
2022-11-16T12:37:08.882Z,9.17
2022-11-16T12:38:10.481Z,9.50
2022-11-16T12:39:12.186Z,9.99
2022-11-16T12:40:35.360Z,10.48
2022-11-16T12:42:04.449Z,11.06
2022-11-16T12:43:53.364Z,11.54
2022-11-16T12:45:19.469Z,11.97
2022-11-16T12:46:39.357Z,11.80
2022-11-16T12:48:13.453Z,11.22
2022-11-16T12:49:48.725Z,10.50
2022-11-16T12:51:02.520Z,9.88
2022-11-16T12:52:15.204Z,9.48
2022-11-16T12:53:54.564Z,9.37
2022-11-16T12:55:24.940Z,9.97
2022-11-16T12:56:48.860Z,10.63
2022-11-16T12:58:10.363Z,11.22
2022-11-16T12:59:38.610Z,11.57
2022-11-16T13:01:17.322Z,11.89
2022-11-16T13:02:27.963Z,11.86
2022-11-16T13:03:37.838Z,11.39
2022-11-16T13:04:50.596Z,10.82
2022-11-16T13:06:04.517Z,10.26
2022-11-16T13:07:18.597Z,9.77
2022-11-16T13:08:34.130Z,9.34
2022-11-16T13:09:45.973Z,9.01
2022-11-16T13:11:02.042Z,9.14
2022-11-16T13:12:14.195Z,9.69
2022-11-16T13:13:36.421Z,10.25
2022-11-16T13:14:43.068Z,10.79
2022-11-16T13:15:47.811Z,11.12
2022-11-16T13:16:51.349Z,11.41
2022-11-16T13:18:01.692Z,11.63
2022-11-16T13:19:07.316Z,11.65
2022-11-16T13:20:31.651Z,11.25
2022-11-16T13:21:57.154Z,10.57
2022-11-16T13:23:08.020Z,9.90
2022-11-16T13:24:20.272Z,9.43
2022-11-16T13:25:33.986Z,8.99
2022-11-16T13:27:11.984Z,8.72
2022-11-16T13:28:29.375Z,9.17
2022-11-16T13:29:48.084Z,9.84
2022-11-16T13:31:31.609Z,10.41
2022-11-16T13:32:34.804Z,11.02
2022-11-16T13:33:51.029Z,11.29
2022-11-16T13:34:54.599Z,11.56
2022-11-16T13:35:56.831Z,11.57
2022-11-16T13:36:58.648Z,11.23
2022-11-16T13:38:01.115Z,10.72
2022-11-16T13:39:05.459Z,10.20
2022-11-16T13:40:07.096Z,9.71
2022-11-16T13:41:28.494Z,9.30
2022-11-16T13:42:34.141Z,8.81
2022-11-16T13:43:35.937Z,8.49
2022-11-16T13:44:38.014Z,8.49
2022-11-16T13:45:57.484Z,8.86
2022-11-16T13:47:05.882Z,9.50
2022-11-16T13:48:19.872Z,10.03
2022-11-16T13:49:24.250Z,10.50
2022-11-16T13:50:38.135Z,10.85
2022-11-16T13:51:39.998Z,11.17
2022-11-16T13:53:36.465Z,11.38
2022-11-16T13:55:43.138Z,10.58
2022-11-16T13:56:51.469Z,10.02
2022-11-16T13:57:57.299Z,9.52
2022-11-16T13:58:59.434Z,9.12
2022-11-16T14:00:01.111Z,8.78
2022-11-16T14:01:10.710Z,8.59
2022-11-16T14:02:39.821Z,8.87
2022-11-16T14:03:44.147Z,9.57
2022-11-16T14:04:57.843Z,10.07
2022-11-16T14:05:59.589Z,10.58
2022-11-16T14:07:01.852Z,10.92
2022-11-16T14:08:38.408Z,11.21
2022-11-16T14:09:42.677Z,11.52
2022-11-16T14:10:44.798Z,11.34
2022-11-16T14:11:46.589Z,10.90
2022-11-16T14:12:52.696Z,10.39
2022-11-16T14:13:55.223Z,9.88
2022-11-16T14:15:19.402Z,9.45
2022-11-16T14:16:21.530Z,8.94
2022-11-16T14:17:51.158Z,8.64
2022-11-16T14:18:54.835Z,8.84
2022-11-16T14:19:56.936Z,9.32
2022-11-16T14:21:12.248Z,9.81
2022-11-16T14:22:25.569Z,10.35
2022-11-16T14:23:50.537Z,10.76
2022-11-16T14:25:09.031Z,11.16
2022-11-16T14:26:36.141Z,11.45
2022-11-16T14:27:55.743Z,11.53
2022-11-16T14:29:23.222Z,11.06
2022-11-16T14:30:35.577Z,10.36
2022-11-16T14:31:52.306Z,9.81
2022-11-16T14:32:57.365Z,9.31
2022-11-16T14:34:00.911Z,8.94
2022-11-16T14:35:06.641Z,8.80
2022-11-16T14:36:10.826Z,9.11
2022-11-16T14:37:30.247Z,9.60
2022-11-16T14:38:36.641Z,10.22
2022-11-16T14:39:43.537Z,10.65
2022-11-16T14:40:57.795Z,11.02
2022-11-16T14:42:05.920Z,11.38
2022-11-16T14:43:38.645Z,11.62
2022-11-16T14:44:40.864Z,11.58
2022-11-16T14:45:52.050Z,11.17
2022-11-16T14:46:54.309Z,10.59
2022-11-16T14:48:04.352Z,10.09
2022-11-16T14:49:16.105Z,9.58
2022-11-16T14:50:22.993Z,9.14
2022-11-16T14:51:34.922Z,8.77
2022-11-16T14:52:44.470Z,8.74
2022-11-16T14:53:52.674Z,9.17
2022-11-16T14:55:00.644Z,9.71
2022-11-16T14:56:08.307Z,10.21
2022-11-16T14:57:21.672Z,10.60
2022-11-16T14:58:24.376Z,10.92
2022-11-16T14:59:26.755Z,11.19
2022-11-16T15:00:30.257Z,11.40
2022-11-16T15:01:39.246Z,11.57
2022-11-16T15:02:41.238Z,11.43
2022-11-16T15:03:54.314Z,11.01
2022-11-16T15:04:56.156Z,10.39